createdAt,value
2018-07-25T00:00:30.267Z,71.10
2018-07-25T00:01:01.376Z,71.10
2018-07-25T00:01:32.546Z,71.00
2018-07-25T00:02:03.628Z,71.00
2018-07-25T00:02:34.740Z,71.00
2018-07-25T00:03:05.969Z,71.10
2018-07-25T00:03:37.079Z,71.10
2018-07-25T00:04:08.196Z,71.10
2018-07-25T00:04:39.311Z,71.10
2018-07-25T00:05:10.424Z,71.10
2018-07-25T00:05:41.536Z,71.10
2018-07-25T00:06:12.647Z,71.10
2018-07-25T00:06:43.751Z,71.10
2018-07-25T00:07:14.855Z,71.10
2018-07-25T00:07:45.964Z,72.00
2018-07-25T00:08:17.099Z,71.10
2018-07-25T00:08:48.212Z,71.10
2018-07-25T00:09:19.319Z,71.10
2018-07-25T00:09:50.430Z,71.10
2018-07-25T00:10:21.547Z,71.10
2018-07-25T00:10:52.656Z,71.10
2018-07-25T00:11:23.772Z,71.10
2018-07-25T00:11:54.884Z,71.10
2018-07-25T00:12:25.993Z,71.10
2018-07-25T00:12:57.100Z,71.10
2018-07-25T00:13:28.232Z,71.10
2018-07-25T00:14:30.900Z,71.10
2018-07-25T00:15:02.004Z,71.20
2018-07-25T00:15:33.111Z,71.20
2018-07-25T00:16:04.224Z,71.10
2018-07-25T00:16:35.341Z,71.20
2018-07-25T00:17:06.461Z,71.20
2018-07-25T00:17:37.577Z,71.20
2018-07-25T00:18:40.349Z,71.20
2018-07-25T00:19:11.472Z,71.20
2018-07-25T00:19:42.584Z,71.20
2018-07-25T00:20:13.696Z,71.50
2018-07-25T00:20:44.809Z,71.20
2018-07-25T00:21:15.920Z,71.20
2018-07-25T00:21:47.029Z,71.20
2018-07-25T00:22:18.136Z,71.20
2018-07-25T00:22:49.252Z,71.30
2018-07-25T00:23:20.403Z,71.20
2018-07-25T00:23:51.512Z,71.20
2018-07-25T00:24:22.649Z,71.20
2018-07-25T00:24:53.764Z,71.20
2018-07-25T00:25:24.876Z,71.20
2018-07-25T00:25:55.988Z,71.20
2018-07-25T00:26:27.104Z,71.20
2018-07-25T00:27:29.723Z,71.30
2018-07-25T00:28:00.834Z,71.30
2018-07-25T00:28:31.981Z,71.30
2018-07-25T00:29:03.096Z,71.40
2018-07-25T00:29:34.212Z,71.30
2018-07-25T00:30:05.325Z,71.30
2018-07-25T00:30:36.443Z,71.30
2018-07-25T00:31:07.556Z,71.30
2018-07-25T00:31:38.671Z,71.30
2018-07-25T00:32:09.787Z,71.70
2018-07-25T00:32:40.897Z,71.30
2018-07-25T00:33:12.012Z,71.30
2018-07-25T00:33:43.148Z,71.40
2018-07-25T00:34:14.264Z,71.30
2018-07-25T00:34:45.371Z,71.30
2018-07-25T00:35:16.489Z,71.30
2018-07-25T00:35:47.604Z,71.30
2018-07-25T00:36:18.737Z,71.30
2018-07-25T00:36:49.849Z,71.30
2018-07-25T00:37:20.957Z,71.40
2018-07-25T00:37:52.064Z,71.40
2018-07-25T00:38:23.208Z,71.40
2018-07-25T00:38:54.320Z,71.50
2018-07-25T00:39:25.427Z,71.40
2018-07-25T00:39:56.536Z,71.40
2018-07-25T00:40:27.644Z,71.50
2018-07-25T00:40:58.752Z,71.40
2018-07-25T00:41:29.860Z,71.40
2018-07-25T00:42:32.512Z,71.40
2018-07-25T00:43:03.628Z,71.40
2018-07-25T00:43:34.770Z,71.40
2018-07-25T00:44:05.884Z,71.40
2018-07-25T00:44:37.002Z,71.40
2018-07-25T00:45:08.112Z,71.40
2018-07-25T00:45:39.228Z,71.40
2018-07-25T00:46:10.380Z,71.40
2018-07-25T00:46:41.526Z,71.40
2018-07-25T00:47:12.640Z,71.40
2018-07-25T00:47:43.753Z,71.50
2018-07-25T00:48:14.880Z,71.50
2018-07-25T00:48:46.016Z,71.50
2018-07-25T00:49:17.129Z,71.50
2018-07-25T00:49:48.249Z,71.50
2018-07-25T00:50:19.356Z,72.20
2018-07-25T00:50:50.472Z,71.50
2018-07-25T00:51:21.589Z,71.50
2018-07-25T00:51:52.701Z,71.50
2018-07-25T00:52:23.824Z,71.60
2018-07-25T00:52:54.936Z,71.50
2018-07-25T00:53:26.087Z,71.60
2018-07-25T00:53:57.202Z,71.60
2018-07-25T00:54:28.320Z,71.60
2018-07-25T00:54:59.436Z,71.60
2018-07-25T00:55:30.609Z,71.60
2018-07-25T00:56:01.672Z,71.60
2018-07-25T00:56:32.780Z,71.50
2018-07-25T00:57:03.888Z,71.60
2018-07-25T00:57:35.005Z,71.60
2018-07-25T00:58:06.112Z,71.70
2018-07-25T00:58:37.248Z,71.70
2018-07-25T00:59:08.359Z,71.70
2018-07-25T00:59:39.477Z,71.70
2018-07-25T01:00:10.579Z,71.70
2018-07-25T01:00:41.688Z,71.60
2018-07-25T01:01:12.792Z,71.70
2018-07-25T01:01:43.904Z,71.70
2018-07-25T01:02:15.012Z,71.70
2018-07-25T01:02:46.132Z,71.70
2018-07-25T01:03:17.250Z,71.70
2018-07-25T01:03:48.388Z,71.60
2018-07-25T01:04:19.496Z,71.70
2018-07-25T01:04:50.608Z,71.70
2018-07-25T01:05:21.733Z,71.70
2018-07-25T01:05:52.852Z,71.70
2018-07-25T01:06:23.963Z,71.70
2018-07-25T01:06:55.076Z,71.60
2018-07-25T01:07:26.188Z,71.70
2018-07-25T01:07:57.296Z,71.70
2018-07-25T01:08:28.442Z,71.70
2018-07-25T01:08:59.625Z,71.70
2018-07-25T01:09:30.736Z,71.70
2018-07-25T01:10:01.841Z,71.70
2018-07-25T01:10:32.952Z,71.70
2018-07-25T01:11:04.072Z,71.70
2018-07-25T01:11:35.189Z,71.70
2018-07-25T01:12:06.301Z,71.80
2018-07-25T01:12:37.413Z,71.70
2018-07-25T01:13:08.521Z,71.80
2018-07-25T01:13:39.667Z,72.50
2018-07-25T01:14:10.784Z,71.70
2018-07-25T01:14:41.892Z,71.70
2018-07-25T01:15:13.009Z,71.70
2018-07-25T01:15:44.124Z,72.60
2018-07-25T01:16:15.340Z,71.70
2018-07-25T01:16:46.452Z,71.80
2018-07-25T01:17:17.555Z,71.80
2018-07-25T01:17:48.669Z,71.80
2018-07-25T01:18:19.860Z,71.80
2018-07-25T01:18:50.997Z,71.80
2018-07-25T01:19:22.108Z,71.80
2018-07-25T01:19:53.221Z,71.90
2018-07-25T01:20:24.332Z,71.80
2018-07-25T01:20:55.447Z,71.90
2018-07-25T01:21:26.562Z,71.80
2018-07-25T01:21:57.668Z,71.80
2018-07-25T01:22:28.780Z,71.90
2018-07-25T01:23:31.431Z,71.80
2018-07-25T01:24:02.540Z,71.90
2018-07-25T01:24:33.660Z,71.90
2018-07-25T01:25:04.768Z,72.00
2018-07-25T01:25:35.884Z,71.90
2018-07-25T01:26:07.003Z,71.80
2018-07-25T01:26:38.131Z,71.90
2018-07-25T01:27:40.784Z,72.00
2018-07-25T01:28:11.900Z,71.90
2018-07-25T01:28:43.007Z,72.80
2018-07-25T01:29:14.120Z,71.90
2018-07-25T01:29:45.236Z,71.90
2018-07-25T01:30:16.352Z,72.00
2018-07-25T01:30:47.466Z,71.90
2018-07-25T01:31:18.598Z,71.90
2018-07-25T01:31:49.896Z,71.90
2018-07-25T01:32:21.009Z,71.90
2018-07-25T01:32:52.128Z,71.90
2018-07-25T01:33:23.244Z,71.90
2018-07-25T01:33:54.361Z,71.90
2018-07-25T01:34:25.500Z,72.00
2018-07-25T01:34:56.624Z,71.90
2018-07-25T01:35:27.748Z,71.90
2018-07-25T01:37:01.965Z,72.00
2018-07-25T01:37:33.081Z,72.00
2018-07-25T01:38:04.195Z,71.90
2018-07-25T01:38:35.316Z,72.00
2018-07-25T01:39:06.453Z,72.80
2018-07-25T01:39:37.568Z,72.00
2018-07-25T01:40:08.691Z,72.40
2018-07-25T01:40:39.803Z,72.00
2018-07-25T01:41:10.916Z,72.00
2018-07-25T01:41:42.028Z,72.00
2018-07-25T01:42:13.135Z,72.00
2018-07-25T01:42:44.240Z,72.00
2018-07-25T01:43:15.347Z,72.40
2018-07-25T01:43:46.460Z,72.00
2018-07-25T01:44:17.668Z,72.00
2018-07-25T01:44:48.783Z,72.00
2018-07-25T01:45:19.896Z,72.00
2018-07-25T01:45:51.007Z,72.00
2018-07-25T01:46:22.120Z,72.00
2018-07-25T01:46:53.239Z,72.00
2018-07-25T01:47:24.343Z,72.00
2018-07-25T01:47:55.464Z,72.00
2018-07-25T01:48:26.764Z,72.00
2018-07-25T01:48:57.916Z,72.00
2018-07-25T01:49:29.024Z,72.10
2018-07-25T01:50:00.140Z,72.10
2018-07-25T01:50:31.265Z,72.00
2018-07-25T01:51:02.376Z,72.00
2018-07-25T01:51:33.487Z,72.00
2018-07-25T01:52:04.598Z,72.00
2018-07-25T01:52:35.713Z,72.00
2018-07-25T01:53:06.829Z,72.80
2018-07-25T01:53:37.939Z,72.00
2018-07-25T01:54:09.075Z,72.00
2018-07-25T01:54:40.262Z,72.00
2018-07-25T01:55:11.399Z,72.00
2018-07-25T01:55:42.516Z,72.00
2018-07-25T01:56:13.628Z,72.00
2018-07-25T01:56:44.740Z,72.10
2018-07-25T01:57:15.856Z,72.10
2018-07-25T01:57:46.964Z,72.10
2018-07-25T01:58:18.071Z,72.10
2018-07-25T01:58:49.176Z,72.10
2018-07-25T01:59:20.308Z,72.10
2018-07-25T01:59:51.426Z,72.20
2018-07-25T02:00:22.540Z,72.10
2018-07-25T02:00:53.657Z,72.00
2018-07-25T02:01:25.095Z,72.00
2018-07-25T02:01:56.160Z,72.00
2018-07-25T02:02:27.269Z,72.10
2018-07-25T02:02:58.383Z,72.90
2018-07-25T02:03:29.508Z,72.10
2018-07-25T02:04:00.616Z,72.00
2018-07-25T02:04:31.748Z,72.10
2018-07-25T02:05:02.865Z,72.10
2018-07-25T02:05:33.978Z,72.10
2018-07-25T02:06:05.092Z,72.10
2018-07-25T02:06:36.201Z,72.10
2018-07-25T02:07:07.312Z,72.20
2018-07-25T02:07:38.419Z,72.10
2018-07-25T02:08:09.535Z,72.10
2018-07-25T02:08:40.654Z,72.10
2018-07-25T02:09:11.817Z,72.10
2018-07-25T02:09:42.929Z,72.10
2018-07-25T02:10:14.457Z,72.10
2018-07-25T02:10:45.581Z,72.10
2018-07-25T02:11:16.696Z,72.10
2018-07-25T02:11:47.800Z,72.10
2018-07-25T02:12:18.917Z,73.10
2018-07-25T02:12:50.024Z,72.10
2018-07-25T02:13:21.140Z,72.10
2018-07-25T02:13:52.253Z,72.10
2018-07-25T02:14:23.394Z,72.10
2018-07-25T02:14:54.509Z,72.20
2018-07-25T02:15:25.623Z,72.10
2018-07-25T02:15:56.732Z,72.10
2018-07-25T02:16:27.848Z,72.10
2018-07-25T02:16:58.960Z,72.10
2018-07-25T02:17:30.076Z,72.10
2018-07-25T02:18:01.197Z,72.10
2018-07-25T02:18:32.317Z,72.10
2018-07-25T02:19:03.432Z,72.10
2018-07-25T02:19:34.639Z,72.20
2018-07-25T02:20:05.714Z,72.20
2018-07-25T02:20:36.828Z,72.20
2018-07-25T02:21:07.944Z,72.20
2018-07-25T02:21:39.057Z,73.00
2018-07-25T02:22:10.172Z,72.20
2018-07-25T02:22:41.284Z,72.20
2018-07-25T02:23:12.391Z,72.20
2018-07-25T02:23:43.511Z,72.20
2018-07-25T02:24:14.636Z,72.20
2018-07-25T02:24:45.789Z,72.20
2018-07-25T02:25:16.904Z,72.20
2018-07-25T02:25:48.020Z,72.20
2018-07-25T02:26:19.136Z,72.20
2018-07-25T02:26:50.256Z,72.20
2018-07-25T02:27:21.365Z,72.20
2018-07-25T02:27:52.485Z,72.20
2018-07-25T02:28:23.600Z,72.20
2018-07-25T02:28:54.712Z,72.20
2018-07-25T02:29:25.846Z,72.20
2018-07-25T02:29:56.956Z,72.20
2018-07-25T02:30:28.061Z,72.20
2018-07-25T02:30:59.168Z,72.70
2018-07-25T02:31:30.276Z,72.20
2018-07-25T02:32:01.392Z,72.20
2018-07-25T02:32:32.504Z,72.20
2018-07-25T02:33:03.621Z,72.20
2018-07-25T02:33:34.737Z,72.20
2018-07-25T02:34:05.856Z,72.20
2018-07-25T02:34:36.992Z,72.20
2018-07-25T02:35:08.103Z,72.20
2018-07-25T02:35:39.221Z,72.20
2018-07-25T02:36:10.343Z,72.30
2018-07-25T02:36:41.458Z,72.30
2018-07-25T02:37:12.576Z,72.30
2018-07-25T02:37:43.696Z,72.30
2018-07-25T02:38:14.805Z,72.30
2018-07-25T02:38:45.925Z,73.10
2018-07-25T02:39:17.044Z,72.30
2018-07-25T02:39:48.186Z,72.30
2018-07-25T02:40:19.308Z,72.30
2018-07-25T02:40:50.420Z,72.30
2018-07-25T02:41:21.538Z,72.30
2018-07-25T02:41:52.658Z,72.40
2018-07-25T02:42:23.894Z,72.40
2018-07-25T02:42:54.908Z,73.10
2018-07-25T02:43:57.553Z,72.30
2018-07-25T02:44:28.678Z,72.40
2018-07-25T02:44:59.821Z,72.40
2018-07-25T02:45:30.964Z,72.40
2018-07-25T02:46:02.077Z,72.40
2018-07-25T02:46:33.193Z,72.30
2018-07-25T02:47:04.303Z,72.40
2018-07-25T02:47:35.421Z,72.30
2018-07-25T02:48:06.536Z,72.40
2018-07-25T02:48:37.645Z,72.40
2018-07-25T02:49:08.762Z,72.40
2018-07-25T02:49:39.897Z,72.40
2018-07-25T02:50:11.008Z,72.40
2018-07-25T02:50:42.125Z,72.40
2018-07-25T02:51:13.240Z,72.40
2018-07-25T02:51:44.349Z,72.40
2018-07-25T02:52:15.468Z,72.40
2018-07-25T02:52:46.584Z,72.40
2018-07-25T02:53:17.700Z,72.40
2018-07-25T02:53:48.817Z,72.40
2018-07-25T02:54:19.948Z,72.40
2018-07-25T02:54:51.087Z,73.20
2018-07-25T02:55:22.204Z,72.40
2018-07-25T02:55:53.320Z,72.40
2018-07-25T02:56:24.437Z,72.40
2018-07-25T02:56:55.605Z,72.40
2018-07-25T02:57:26.720Z,72.40
2018-07-25T02:57:57.837Z,72.40
2018-07-25T02:58:28.947Z,73.00
2018-07-25T02:59:00.052Z,72.40
2018-07-25T02:59:31.258Z,72.40
2018-07-25T03:00:02.407Z,72.40
2018-07-25T03:00:33.558Z,72.40
2018-07-25T03:01:04.677Z,72.40
2018-07-25T03:01:35.807Z,72.40
2018-07-25T03:02:06.925Z,72.40
2018-07-25T03:02:38.048Z,72.40
2018-07-25T03:03:09.164Z,72.40
2018-07-25T03:03:40.275Z,72.40
2018-07-25T03:04:11.389Z,72.40
2018-07-25T03:04:42.532Z,72.40
2018-07-25T03:05:13.641Z,72.40
2018-07-25T03:05:44.753Z,72.80
2018-07-25T03:06:15.867Z,72.50
2018-07-25T03:06:46.982Z,72.50
2018-07-25T03:07:18.096Z,72.50
2018-07-25T03:07:49.213Z,72.50
2018-07-25T03:08:20.340Z,72.50
2018-07-25T03:08:51.519Z,72.50
2018-07-25T03:09:54.129Z,72.50
2018-07-25T03:10:25.247Z,72.50
2018-07-25T03:10:56.366Z,72.50
2018-07-25T03:11:27.476Z,72.50
2018-07-25T03:11:58.588Z,72.50
2018-07-25T03:12:29.699Z,72.50
2018-07-25T03:13:00.809Z,72.60
2018-07-25T03:13:31.925Z,72.60
2018-07-25T03:14:03.041Z,72.70
2018-07-25T03:14:34.153Z,72.60
2018-07-25T03:15:05.305Z,72.50
2018-07-25T03:15:36.413Z,72.50
2018-07-25T03:16:07.523Z,72.60
2018-07-25T03:16:38.668Z,72.50
2018-07-25T03:17:09.793Z,72.50
2018-07-25T03:17:40.918Z,72.50
2018-07-25T03:18:12.042Z,72.50
2018-07-25T03:18:43.202Z,72.50
2018-07-25T03:19:14.389Z,72.50
2018-07-25T03:19:45.550Z,72.50
2018-07-25T03:20:16.677Z,72.50
2018-07-25T03:20:47.796Z,72.50
2018-07-25T03:21:18.913Z,72.50
2018-07-25T03:21:50.027Z,72.50
2018-07-25T03:22:21.148Z,72.50
2018-07-25T03:22:52.300Z,72.50
2018-07-25T03:23:23.427Z,72.60
2018-07-25T03:23:54.540Z,72.50
2018-07-25T03:24:25.673Z,72.50
2018-07-25T03:24:56.821Z,72.50
2018-07-25T03:25:27.945Z,72.50
2018-07-25T03:25:59.070Z,72.50
2018-07-25T03:26:30.193Z,72.50
2018-07-25T03:27:01.321Z,72.50
2018-07-25T03:28:03.957Z,72.50
2018-07-25T03:28:35.072Z,72.50
2018-07-25T03:29:06.193Z,72.50
2018-07-25T03:29:37.304Z,72.50
2018-07-25T03:30:08.445Z,72.50
2018-07-25T03:30:39.559Z,72.50
2018-07-25T03:31:10.672Z,72.50
2018-07-25T03:31:41.788Z,72.50
2018-07-25T03:32:12.909Z,72.50
2018-07-25T03:32:44.029Z,72.50
2018-07-25T03:33:15.148Z,72.50
2018-07-25T03:33:46.263Z,72.50
2018-07-25T03:34:17.380Z,72.50
2018-07-25T03:34:48.528Z,72.50
2018-07-25T03:35:19.645Z,72.50
2018-07-25T03:35:50.771Z,72.50
2018-07-25T03:36:21.888Z,72.50
2018-07-25T03:36:52.996Z,72.50
2018-07-25T03:37:24.193Z,72.50
2018-07-25T03:37:55.256Z,72.50
2018-07-25T03:38:26.370Z,72.50
2018-07-25T03:38:57.476Z,72.50
2018-07-25T03:39:28.592Z,72.80
2018-07-25T03:39:59.727Z,72.50
2018-07-25T03:40:30.840Z,72.60
2018-07-25T03:41:01.963Z,72.60
2018-07-25T03:41:33.089Z,72.60
2018-07-25T03:42:04.195Z,72.50
2018-07-25T03:43:06.836Z,72.60
2018-07-25T03:43:37.952Z,72.60
2018-07-25T03:44:09.068Z,72.60
2018-07-25T03:44:40.186Z,72.60
2018-07-25T03:45:11.333Z,72.50
2018-07-25T03:45:42.445Z,72.50
2018-07-25T03:46:13.565Z,72.50
2018-07-25T03:46:44.692Z,72.50
2018-07-25T03:47:15.803Z,72.50
2018-07-25T03:47:46.921Z,72.50
2018-07-25T03:48:18.035Z,72.50
2018-07-25T03:48:49.143Z,72.60
2018-07-25T03:49:20.256Z,72.60
2018-07-25T03:49:51.369Z,72.60
2018-07-25T03:50:22.485Z,72.60
2018-07-25T03:50:53.598Z,72.60
2018-07-25T03:51:24.735Z,72.60
2018-07-25T03:51:55.847Z,72.60
2018-07-25T03:52:26.961Z,72.60
2018-07-25T03:52:58.081Z,72.60
2018-07-25T03:53:29.192Z,72.60
2018-07-25T03:54:00.311Z,72.60
2018-07-25T03:54:31.429Z,72.60
2018-07-25T03:55:02.586Z,72.60
2018-07-25T03:55:33.733Z,72.60
2018-07-25T03:56:05.253Z,72.60
2018-07-25T03:56:36.637Z,72.70
2018-07-25T03:57:08.277Z,72.70
2018-07-25T03:57:40.840Z,72.70
2018-07-25T03:58:13.407Z,72.70
2018-07-25T03:58:45.251Z,72.70
2018-07-25T03:59:16.689Z,72.70
2018-07-25T03:59:47.829Z,72.70
2018-07-25T04:00:19.197Z,72.70
2018-07-25T04:00:50.317Z,72.70
2018-07-25T04:01:21.432Z,72.60
2018-07-25T04:01:52.547Z,72.60
2018-07-25T04:02:23.676Z,72.70
2018-07-25T04:02:54.785Z,72.70
2018-07-25T04:03:25.892Z,72.70
2018-07-25T04:03:57.029Z,72.70
2018-07-25T04:04:28.204Z,72.70
2018-07-25T04:04:59.325Z,72.70
2018-07-25T04:05:30.464Z,72.60
2018-07-25T04:06:01.597Z,72.70
2018-07-25T04:06:32.716Z,72.70
2018-07-25T04:07:03.829Z,72.70
2018-07-25T04:07:34.936Z,72.60
2018-07-25T04:08:06.057Z,72.70
2018-07-25T04:08:37.180Z,72.70
2018-07-25T04:09:08.353Z,72.50
2018-07-25T04:09:39.435Z,72.50
2018-07-25T04:10:10.549Z,72.50
2018-07-25T04:10:41.693Z,72.50
2018-07-25T04:11:12.813Z,72.20
2018-07-25T04:11:43.948Z,72.30
2018-07-25T04:12:15.069Z,72.40
2018-07-25T04:12:46.269Z,72.20
2018-07-25T04:13:17.394Z,72.10
2018-07-25T04:13:48.505Z,72.10
2018-07-25T04:14:19.624Z,72.10
2018-07-25T04:14:50.760Z,72.20
2018-07-25T04:15:21.885Z,72.10
2018-07-25T04:15:53.034Z,72.40
2018-07-25T04:16:24.176Z,72.00
2018-07-25T04:16:55.309Z,71.80
2018-07-25T04:17:26.464Z,71.70
2018-07-25T04:17:57.588Z,71.80
2018-07-25T04:18:29.611Z,71.80
2018-07-25T04:19:00.994Z,71.70
2018-07-25T04:19:32.474Z,71.70
2018-07-25T04:20:04.023Z,71.70
2018-07-25T04:20:35.564Z,71.60
2018-07-25T04:21:07.099Z,71.50
2018-07-25T04:21:38.434Z,71.60
2018-07-25T04:22:09.871Z,71.50
2018-07-25T04:22:41.512Z,71.50
2018-07-25T04:23:12.977Z,71.50
2018-07-25T04:23:44.137Z,71.50
2018-07-25T04:24:15.253Z,71.50
2018-07-25T04:24:46.416Z,71.50
2018-07-25T04:25:17.507Z,71.50
2018-07-25T04:25:48.648Z,71.50
2018-07-25T04:26:19.755Z,71.50
2018-07-25T04:26:50.873Z,71.50
2018-07-25T04:27:21.999Z,71.60
2018-07-25T04:27:53.120Z,71.50
2018-07-25T04:28:24.240Z,71.50
2018-07-25T04:28:55.352Z,71.40
2018-07-25T04:29:26.468Z,71.40
2018-07-25T04:29:57.581Z,71.40
2018-07-25T04:30:28.700Z,71.40
2018-07-25T04:30:59.836Z,71.40
2018-07-25T04:31:30.952Z,71.40
2018-07-25T04:32:02.065Z,71.40
2018-07-25T04:32:33.184Z,71.30
2018-07-25T04:33:04.297Z,71.30
2018-07-25T04:33:35.429Z,71.20
2018-07-25T04:34:06.580Z,71.20
2018-07-25T04:34:37.733Z,71.20
2018-07-25T04:35:08.824Z,71.20
2018-07-25T04:35:39.961Z,71.20
2018-07-25T04:36:11.072Z,71.20
2018-07-25T04:36:42.184Z,71.00
2018-07-25T04:37:13.301Z,71.00
2018-07-25T04:37:44.412Z,71.00
2018-07-25T04:38:15.520Z,71.10
2018-07-25T04:38:46.644Z,71.10
2018-07-25T04:39:17.764Z,71.00
2018-07-25T04:39:48.916Z,71.00
2018-07-25T04:40:20.029Z,70.80
2018-07-25T04:40:51.164Z,70.80
2018-07-25T04:41:22.285Z,71.00
2018-07-25T04:41:53.424Z,71.00
2018-07-25T04:42:24.532Z,71.00
2018-07-25T04:42:55.639Z,71.20
2018-07-25T04:43:26.757Z,71.30
2018-07-25T04:43:57.876Z,71.30
2018-07-25T04:44:28.983Z,71.40
2018-07-25T04:45:00.106Z,71.40
2018-07-25T04:45:31.223Z,71.40
2018-07-25T04:46:02.383Z,71.40
2018-07-25T04:46:33.591Z,71.40
2018-07-25T04:47:04.647Z,71.40
2018-07-25T04:47:35.765Z,71.50
2018-07-25T04:48:06.896Z,71.50
2018-07-25T04:48:38.013Z,71.50
2018-07-25T04:49:09.128Z,71.40
2018-07-25T04:49:40.240Z,71.40
2018-07-25T04:50:11.353Z,71.40
2018-07-25T04:50:42.507Z,72.10
2018-07-25T04:51:13.620Z,71.50
2018-07-25T04:51:44.732Z,71.40
2018-07-25T04:52:15.864Z,71.50
2018-07-25T04:52:46.972Z,71.40
2018-07-25T04:53:18.080Z,71.40
2018-07-25T04:53:49.197Z,71.40
2018-07-25T04:54:20.315Z,71.40
2018-07-25T04:54:51.427Z,71.40
2018-07-25T04:55:22.540Z,71.40
2018-07-25T04:55:53.680Z,71.40
2018-07-25T04:56:24.794Z,71.40
2018-07-25T04:56:55.908Z,71.40
2018-07-25T04:57:27.020Z,71.40
2018-07-25T04:57:58.128Z,71.40
2018-07-25T04:58:29.237Z,71.40
2018-07-25T04:59:00.349Z,71.50
2018-07-25T04:59:31.456Z,71.50
2018-07-25T05:00:02.566Z,71.50
2018-07-25T05:00:33.681Z,71.40
2018-07-25T05:01:04.816Z,71.40
2018-07-25T05:01:35.929Z,71.50
2018-07-25T05:02:07.055Z,71.40
2018-07-25T05:02:38.176Z,71.50
2018-07-25T05:03:09.289Z,71.50
2018-07-25T05:03:40.408Z,71.40
2018-07-25T05:04:11.515Z,71.50
2018-07-25T05:04:42.634Z,71.30
2018-07-25T05:05:13.753Z,71.50
2018-07-25T05:05:44.860Z,71.40
2018-07-25T05:06:16.001Z,71.40
2018-07-25T05:06:47.117Z,71.40
2018-07-25T05:07:18.241Z,71.40
2018-07-25T05:07:49.353Z,71.40
2018-07-25T05:08:20.460Z,71.50
2018-07-25T05:08:51.572Z,71.40
2018-07-25T05:09:22.680Z,71.30
2018-07-25T05:09:53.794Z,71.30
2018-07-25T05:10:24.904Z,71.40
2018-07-25T05:10:56.048Z,71.40
2018-07-25T05:11:27.156Z,71.40
2018-07-25T05:11:58.281Z,71.40
2018-07-25T05:12:29.419Z,71.30
2018-07-25T05:13:00.529Z,71.50
2018-07-25T05:13:31.636Z,71.50
2018-07-25T05:14:02.760Z,71.30
2018-07-25T05:14:33.868Z,71.40
2018-07-25T05:15:04.979Z,71.40
2018-07-25T05:15:36.088Z,71.50
2018-07-25T05:16:07.220Z,71.50
2018-07-25T05:16:38.331Z,71.40
2018-07-25T05:17:09.441Z,71.50
2018-07-25T05:17:40.556Z,71.40
2018-07-25T05:18:11.672Z,71.50
2018-07-25T05:18:42.781Z,71.40
2018-07-25T05:19:13.892Z,71.50
2018-07-25T05:19:45.008Z,71.80
2018-07-25T05:20:16.125Z,71.40
2018-07-25T05:20:47.244Z,71.40
2018-07-25T05:21:18.390Z,71.40
2018-07-25T05:21:49.505Z,71.40
2018-07-25T05:22:20.619Z,71.40
2018-07-25T05:22:51.731Z,71.40
2018-07-25T05:23:22.908Z,71.40
2018-07-25T05:24:25.504Z,71.50
2018-07-25T05:24:56.616Z,71.50
2018-07-25T05:25:27.727Z,71.50
2018-07-25T05:25:58.836Z,71.60
2018-07-25T05:26:29.973Z,71.50
2018-07-25T05:27:01.097Z,71.40
2018-07-25T05:27:32.212Z,71.40
2018-07-25T05:28:03.325Z,71.40
2018-07-25T05:28:34.440Z,71.40
2018-07-25T05:29:05.548Z,71.40
2018-07-25T05:29:36.661Z,71.40
2018-07-25T05:30:07.828Z,71.40
2018-07-25T05:30:38.909Z,71.40
2018-07-25T05:31:10.045Z,71.40
2018-07-25T05:31:41.152Z,71.40
2018-07-25T05:32:12.259Z,71.40
2018-07-25T05:32:43.376Z,71.50
2018-07-25T05:33:14.488Z,71.50
2018-07-25T05:33:45.600Z,71.50
2018-07-25T05:34:16.708Z,71.50
2018-07-25T05:34:47.824Z,71.50
2018-07-25T05:35:18.932Z,71.50
2018-07-25T05:35:50.044Z,71.50
2018-07-25T05:36:21.303Z,71.50
2018-07-25T05:36:52.412Z,71.50
2018-07-25T05:37:23.524Z,71.50
2018-07-25T05:37:54.635Z,71.50
2018-07-25T05:38:25.748Z,71.50
2018-07-25T05:38:56.856Z,71.60
2018-07-25T05:39:27.974Z,71.50
2018-07-25T05:39:59.081Z,71.50
2018-07-25T05:40:30.196Z,71.50
2018-07-25T05:41:01.310Z,71.70
2018-07-25T05:41:32.448Z,71.60
2018-07-25T05:42:03.637Z,71.70
2018-07-25T05:42:34.753Z,71.50
2018-07-25T05:43:05.873Z,71.50
2018-07-25T05:43:36.985Z,71.60
2018-07-25T05:44:08.109Z,71.60
2018-07-25T05:44:39.221Z,71.60
2018-07-25T05:45:10.328Z,71.50
2018-07-25T05:45:41.549Z,71.50
2018-07-25T05:46:12.668Z,71.60
2018-07-25T05:46:43.808Z,71.60
2018-07-25T05:47:14.924Z,71.60
2018-07-25T05:47:46.042Z,71.70
2018-07-25T05:48:17.156Z,71.70
2018-07-25T05:48:48.264Z,71.70
2018-07-25T05:49:19.400Z,71.60
2018-07-25T05:49:50.540Z,71.60
2018-07-25T05:50:21.685Z,71.60
2018-07-25T05:50:52.822Z,71.60
2018-07-25T05:51:23.969Z,71.60
2018-07-25T05:51:55.101Z,71.70
2018-07-25T05:52:26.221Z,71.70
2018-07-25T05:52:57.334Z,71.80
2018-07-25T05:53:28.455Z,71.80
2018-07-25T05:53:59.577Z,71.80
2018-07-25T05:54:30.697Z,71.80
2018-07-25T05:55:01.804Z,71.80
2018-07-25T05:55:32.912Z,71.80
2018-07-25T05:56:04.025Z,71.80
2018-07-25T05:56:35.160Z,71.80
2018-07-25T05:57:06.274Z,71.80
2018-07-25T05:57:37.421Z,71.80
2018-07-25T05:58:08.542Z,71.80
2018-07-25T05:58:39.675Z,71.80
2018-07-25T05:59:10.784Z,71.80
2018-07-25T05:59:41.905Z,71.80
2018-07-25T06:00:13.016Z,71.80
2018-07-25T06:00:44.124Z,71.90
2018-07-25T06:01:15.237Z,71.90
2018-07-25T06:01:46.353Z,71.90
2018-07-25T06:02:17.475Z,71.80
2018-07-25T06:02:48.635Z,71.80
2018-07-25T06:03:19.846Z,71.80
2018-07-25T06:03:50.860Z,71.80
2018-07-25T06:04:21.988Z,71.90
2018-07-25T06:04:53.104Z,71.90
2018-07-25T06:05:24.216Z,71.90
2018-07-25T06:05:55.398Z,71.80
2018-07-25T06:06:58.032Z,71.90
2018-07-25T06:07:29.135Z,72.00
2018-07-25T06:08:00.249Z,71.90
2018-07-25T06:08:31.427Z,71.90
2018-07-25T06:09:02.500Z,71.90
2018-07-25T06:09:33.705Z,71.80
2018-07-25T06:10:04.813Z,71.80
2018-07-25T06:10:35.925Z,71.80
2018-07-25T06:11:07.041Z,71.80
2018-07-25T06:11:38.151Z,71.90
2018-07-25T06:12:09.269Z,71.90
2018-07-25T06:12:40.399Z,71.90
2018-07-25T06:13:11.519Z,71.90
2018-07-25T06:13:42.649Z,71.90
2018-07-25T06:14:13.801Z,71.80
2018-07-25T06:14:44.903Z,71.80
2018-07-25T06:15:16.016Z,71.80
2018-07-25T06:15:47.128Z,71.80
2018-07-25T06:16:18.240Z,71.80
2018-07-25T06:16:49.381Z,71.80
2018-07-25T06:17:20.492Z,71.80
2018-07-25T06:17:51.611Z,71.80
2018-07-25T06:18:22.723Z,71.80
2018-07-25T06:18:53.840Z,71.80
2018-07-25T06:19:24.980Z,71.80
2018-07-25T06:19:56.097Z,71.80
2018-07-25T06:20:27.250Z,71.90
2018-07-25T06:20:58.345Z,72.00
2018-07-25T06:21:29.463Z,72.00
2018-07-25T06:22:00.601Z,72.00
2018-07-25T06:22:31.715Z,72.00
2018-07-25T06:23:02.833Z,72.00
2018-07-25T06:23:33.953Z,72.10
2018-07-25T06:24:05.070Z,72.00
2018-07-25T06:24:36.179Z,71.90
2018-07-25T06:25:07.296Z,71.90
2018-07-25T06:25:38.412Z,71.90
2018-07-25T06:26:09.529Z,71.90
2018-07-25T06:26:40.664Z,72.00
2018-07-25T06:27:11.772Z,72.00
2018-07-25T06:27:42.896Z,72.00
2018-07-25T06:28:14.008Z,71.90
2018-07-25T06:28:45.121Z,71.90
2018-07-25T06:29:16.228Z,71.90
2018-07-25T06:29:47.340Z,71.90
2018-07-25T06:30:18.451Z,72.00
2018-07-25T06:30:49.565Z,71.90
2018-07-25T06:31:20.740Z,72.00
2018-07-25T06:31:51.844Z,72.00
2018-07-25T06:32:22.977Z,71.90
2018-07-25T06:32:54.090Z,72.00
2018-07-25T06:33:25.198Z,72.00
2018-07-25T06:33:56.320Z,72.00
2018-07-25T06:34:27.427Z,72.00
2018-07-25T06:34:58.540Z,72.00
2018-07-25T06:35:29.652Z,72.00
2018-07-25T06:36:00.769Z,72.00
2018-07-25T06:36:31.889Z,71.70
2018-07-25T06:37:03.037Z,72.00
2018-07-25T06:37:34.152Z,72.00
2018-07-25T06:38:05.274Z,72.00
2018-07-25T06:38:36.385Z,72.00
2018-07-25T06:39:07.496Z,72.00
2018-07-25T06:39:38.621Z,72.00
2018-07-25T06:40:09.740Z,72.00
2018-07-25T06:40:40.856Z,72.00
2018-07-25T06:41:11.964Z,72.00
2018-07-25T06:41:43.076Z,72.00
2018-07-25T06:42:14.224Z,72.00
2018-07-25T06:42:45.344Z,72.00
2018-07-25T06:43:16.467Z,72.00
2018-07-25T06:43:47.624Z,72.00
2018-07-25T06:44:18.771Z,72.00
2018-07-25T06:44:49.898Z,72.00
2018-07-25T06:45:21.021Z,72.00
2018-07-25T06:46:23.683Z,72.00
2018-07-25T06:46:54.826Z,72.00
2018-07-25T06:47:25.940Z,72.00
2018-07-25T06:47:57.052Z,72.00
2018-07-25T06:48:28.159Z,72.60
2018-07-25T06:48:59.286Z,72.10